sensor_id;sensor_type;location;lat;lon;timestamp;P1;durP1;ratioP1;P2;durP2;ratioP2
46561;SDS011;32289;42.688;23.330;2023-09-08T00:02:25;15.35;;;7.30;;
46561;SDS011;32289;42.688;23.330;2023-09-08T00:06:07;11.25;;;8.02;;
46561;SDS011;32289;42.688;23.330;2023-09-08T00:17:30;12.60;;;8.10;;
46561;SDS011;32289;42.688;23.330;2023-09-08T00:21:10;11.77;;;7.25;;
46561;SDS011;32289;42.688;23.330;2023-09-08T00:24:52;12.68;;;8.10;;
46561;SDS011;32289;42.688;23.330;2023-09-08T00:28:33;10.93;;;7.32;;
46561;SDS011;32289;42.688;23.330;2023-09-08T00:32:14;9.77;;;7.20;;
46561;SDS011;32289;42.688;23.330;2023-09-08T00:35:54;9.32;;;6.70;;
46561;SDS011;32289;42.688;23.330;2023-09-08T00:39:37;10.80;;;6.05;;
46561;SDS011;32289;42.688;23.330;2023-09-08T00:43:18;9.32;;;5.93;;
46561;SDS011;32289;42.688;23.330;2023-09-08T00:46:59;10.20;;;4.60;;
46561;SDS011;32289;42.688;23.330;2023-09-08T00:50:39;9.98;;;5.20;;
46561;SDS011;32289;42.688;23.330;2023-09-08T00:54:20;11.30;;;5.13;;
46561;SDS011;32289;42.688;23.330;2023-09-08T00:58:01;6.68;;;4.15;;
46561;SDS011;32289;42.688;23.330;2023-09-08T01:01:43;9.18;;;4.50;;
46561;SDS011;32289;42.688;23.330;2023-09-08T01:05:23;8.35;;;4.97;;
46561;SDS011;32289;42.688;23.330;2023-09-08T01:09:04;8.48;;;4.05;;
46561;SDS011;32289;42.688;23.330;2023-09-08T01:12:46;6.57;;;4.20;;
46561;SDS011;32289;42.688;23.330;2023-09-08T01:16:26;6.95;;;4.45;;
46561;SDS011;32289;42.688;23.330;2023-09-08T01:24:18;8.48;;;4.97;;
46561;SDS011;32289;42.688;23.330;2023-09-08T01:28:06;9.57;;;4.32;;
46561;SDS011;32289;42.688;23.330;2023-09-08T01:31:47;7.07;;;4.93;;
46561;SDS011;32289;42.688;23.330;2023-09-08T01:35:28;6.32;;;4.22;;
46561;SDS011;32289;42.688;23.330;2023-09-08T01:39:09;7.25;;;4.35;;
46561;SDS011;32289;42.688;23.330;2023-09-08T01:42:50;9.13;;;4.93;;
46561;SDS011;32289;42.688;23.330;2023-09-08T01:46:31;7.00;;;4.72;;
46561;SDS011;32289;42.688;23.330;2023-09-08T01:50:12;8.98;;;4.60;;
46561;SDS011;32289;42.688;23.330;2023-09-08T01:54:14;10.30;;;4.63;;
46561;SDS011;32289;42.688;23.330;2023-09-08T01:57:55;5.75;;;3.97;;
46561;SDS011;32289;42.688;23.330;2023-09-08T02:01:35;6.82;;;4.13;;
46561;SDS011;32289;42.688;23.330;2023-09-08T02:05:16;7.63;;;4.25;;
46561;SDS011;32289;42.688;23.330;2023-09-08T02:09:06;9.00;;;4.53;;
46561;SDS011;32289;42.688;23.330;2023-09-08T02:17:55;7.43;;;4.80;;
46561;SDS011;32289;42.688;23.330;2023-09-08T02:21:43;9.25;;;4.85;;
46561;SDS011;32289;42.688;23.330;2023-09-08T02:26:00;9.43;;;4.82;;
46561;SDS011;32289;42.688;23.330;2023-09-08T02:29:48;8.50;;;4.68;;
46561;SDS011;32289;42.688;23.330;2023-09-08T02:33:29;10.07;;;4.82;;
46561;SDS011;32289;42.688;23.330;2023-09-08T02:37:09;9.35;;;4.88;;
46561;SDS011;32289;42.688;23.330;2023-09-08T02:40:50;11.70;;;5.05;;
46561;SDS011;32289;42.688;23.330;2023-09-08T02:44:31;8.68;;;5.70;;
46561;SDS011;32289;42.688;23.330;2023-09-08T02:48:12;10.02;;;5.57;;
46561;SDS011;32289;42.688;23.330;2023-09-08T02:51:53;8.15;;;5.60;;
46561;SDS011;32289;42.688;23.330;2023-09-08T02:55:33;8.73;;;5.25;;
46561;SDS011;32289;42.688;23.330;2023-09-08T02:59:14;9.82;;;5.75;;
46561;SDS011;32289;42.688;23.330;2023-09-08T03:02:55;7.50;;;5.30;;
46561;SDS011;32289;42.688;23.330;2023-09-08T03:06:38;8.60;;;5.60;;
46561;SDS011;32289;42.688;23.330;2023-09-08T03:10:19;9.13;;;5.43;;
46561;SDS011;32289;42.688;23.330;2023-09-08T03:13:59;8.98;;;5.07;;
46561;SDS011;32289;42.688;23.330;2023-09-08T03:17:40;9.02;;;5.43;;
46561;SDS011;32289;42.688;23.330;2023-09-08T03:21:20;9.45;;;5.45;;
46561;SDS011;32289;42.688;23.330;2023-09-08T03:25:01;8.85;;;5.20;;
46561;SDS011;32289;42.688;23.330;2023-09-08T03:28:42;11.43;;;5.97;;
46561;SDS011;32289;42.688;23.330;2023-09-08T03:32:23;9.55;;;5.50;;
46561;SDS011;32289;42.688;23.330;2023-09-08T03:36:05;10.95;;;6.05;;
46561;SDS011;32289;42.688;23.330;2023-09-08T03:39:45;7.65;;;5.45;;
46561;SDS011;32289;42.688;23.330;2023-09-08T03:43:26;9.73;;;5.75;;
46561;SDS011;32289;42.688;23.330;2023-09-08T03:47:07;12.05;;;5.05;;
46561;SDS011;32289;42.688;23.330;2023-09-08T03:50:48;12.35;;;5.78;;
46561;SDS011;32289;42.688;23.330;2023-09-08T03:54:32;7.47;;;5.53;;
46561;SDS011;32289;42.688;23.330;2023-09-08T03:58:20;7.88;;;5.35;;
46561;SDS011;32289;42.688;23.330;2023-09-08T04:02:13;10.70;;;5.90;;
46561;SDS011;32289;42.688;23.330;2023-09-08T04:05:57;11.02;;;6.60;;
46561;SDS011;32289;42.688;23.330;2023-09-08T04:09:37;9.38;;;5.85;;
46561;SDS011;32289;42.688;23.330;2023-09-08T04:13:18;12.00;;;6.10;;
46561;SDS011;32289;42.688;23.330;2023-09-08T04:16:58;10.18;;;6.35;;
46561;SDS011;32289;42.688;23.330;2023-09-08T04:20:39;10.10;;;5.97;;
46561;SDS011;32289;42.688;23.330;2023-09-08T04:24:20;11.88;;;5.57;;
46561;SDS011;32289;42.688;23.330;2023-09-08T04:28:00;8.98;;;5.30;;
46561;SDS011;32289;42.688;23.330;2023-09-08T04:31:41;12.38;;;6.50;;
46561;SDS011;32289;42.688;23.330;2023-09-08T04:35:22;9.82;;;6.35;;
46561;SDS011;32289;42.688;23.330;2023-09-08T04:39:02;11.15;;;5.88;;
46561;SDS011;32289;42.688;23.330;2023-09-08T04:42:43;11.75;;;5.80;;
46561;SDS011;32289;42.688;23.330;2023-09-08T04:46:24;12.30;;;6.38;;
46561;SDS011;32289;42.688;23.330;2023-09-08T04:50:05;13.88;;;6.22;;
46561;SDS011;32289;42.688;23.330;2023-09-08T04:53:46;9.25;;;6.07;;
46561;SDS011;32289;42.688;23.330;2023-09-08T04:57:30;10.88;;;6.40;;
46561;SDS011;32289;42.688;23.330;2023-09-08T05:01:11;13.52;;;7.93;;
46561;SDS011;32289;42.688;23.330;2023-09-08T05:04:52;15.35;;;6.80;;
46561;SDS011;32289;42.688;23.330;2023-09-08T05:08:32;8.82;;;5.90;;
46561;SDS011;32289;42.688;23.330;2023-09-08T05:12:13;13.70;;;6.00;;
46561;SDS011;32289;42.688;23.330;2023-09-08T05:15:54;12.98;;;6.25;;
46561;SDS011;32289;42.688;23.330;2023-09-08T05:19:40;9.48;;;5.95;;
46561;SDS011;32289;42.688;23.330;2023-09-08T05:23:20;7.63;;;5.40;;
46561;SDS011;32289;42.688;23.330;2023-09-08T05:27:01;13.65;;;6.53;;
46561;SDS011;32289;42.688;23.330;2023-09-08T05:30:42;11.65;;;5.65;;
46561;SDS011;32289;42.688;23.330;2023-09-08T05:34:22;16.48;;;5.35;;
46561;SDS011;32289;42.688;23.330;2023-09-08T05:38:03;11.07;;;5.00;;
46561;SDS011;32289;42.688;23.330;2023-09-08T05:41:45;9.27;;;5.32;;
46561;SDS011;32289;42.688;23.330;2023-09-08T05:45:26;10.98;;;4.50;;
46561;SDS011;32289;42.688;23.330;2023-09-08T05:49:06;8.95;;;4.07;;
46561;SDS011;32289;42.688;23.330;2023-09-08T05:52:47;6.65;;;4.00;;
46561;SDS011;32289;42.688;23.330;2023-09-08T05:56:31;7.70;;;4.97;;
46561;SDS011;32289;42.688;23.330;2023-09-08T06:00:13;9.32;;;4.00;;
46561;SDS011;32289;42.688;23.330;2023-09-08T06:03:54;8.63;;;4.22;;
46561;SDS011;32289;42.688;23.330;2023-09-08T06:07:35;6.00;;;3.28;;
46561;SDS011;32289;42.688;23.330;2023-09-08T06:11:18;8.30;;;3.83;;
46561;SDS011;32289;42.688;23.330;2023-09-08T06:14:59;8.15;;;4.00;;
46561;SDS011;32289;42.688;23.330;2023-09-08T06:18:41;7.05;;;4.00;;
46561;SDS011;32289;42.688;23.330;2023-09-08T06:22:23;6.22;;;3.15;;
46561;SDS011;32289;42.688;23.330;2023-09-08T06:26:04;7.43;;;3.80;;
46561;SDS011;32289;42.688;23.330;2023-09-08T06:29:45;10.13;;;3.25;;
46561;SDS011;32289;42.688;23.330;2023-09-08T06:33:25;6.45;;;3.45;;
46561;SDS011;32289;42.688;23.330;2023-09-08T06:37:06;4.53;;;2.80;;
46561;SDS011;32289;42.688;23.330;2023-09-08T06:40:47;4.82;;;2.90;;
46561;SDS011;32289;42.688;23.330;2023-09-08T06:44:28;10.30;;;3.05;;
46561;SDS011;32289;42.688;23.330;2023-09-08T06:48:08;5.25;;;3.10;;
46561;SDS011;32289;42.688;23.330;2023-09-08T06:51:49;7.50;;;2.95;;
46561;SDS011;32289;42.688;23.330;2023-09-08T06:55:30;6.03;;;2.67;;
46561;SDS011;32289;42.688;23.330;2023-09-08T06:59:11;3.60;;;2.58;;
46561;SDS011;32289;42.688;23.330;2023-09-08T07:02:51;7.28;;;2.45;;
46561;SDS011;32289;42.688;23.330;2023-09-08T07:06:32;7.18;;;2.70;;
46561;SDS011;32289;42.688;23.330;2023-09-08T07:10:13;4.50;;;2.70;;
46561;SDS011;32289;42.688;23.330;2023-09-08T07:13:54;6.15;;;2.50;;
46561;SDS011;32289;42.688;23.330;2023-09-08T07:17:35;7.03;;;3.53;;
46561;SDS011;32289;42.688;23.330;2023-09-08T07:21:16;6.97;;;2.70;;
46561;SDS011;32289;42.688;23.330;2023-09-08T07:24:57;6.78;;;2.45;;
46561;SDS011;32289;42.688;23.330;2023-09-08T07:28:40;7.72;;;2.78;;
46561;SDS011;32289;42.688;23.330;2023-09-08T07:32:21;3.70;;;2.22;;
46561;SDS011;32289;42.688;23.330;2023-09-08T07:36:06;6.97;;;2.40;;
46561;SDS011;32289;42.688;23.330;2023-09-08T07:39:49;6.53;;;2.38;;
46561;SDS011;32289;42.688;23.330;2023-09-08T07:43:30;5.20;;;2.10;;
46561;SDS011;32289;42.688;23.330;2023-09-08T07:47:11;6.85;;;2.50;;
46561;SDS011;32289;42.688;23.330;2023-09-08T07:50:52;5.07;;;2.35;;
46561;SDS011;32289;42.688;23.330;2023-09-08T07:54:32;5.72;;;2.63;;
46561;SDS011;32289;42.688;23.330;2023-09-08T07:58:13;7.55;;;2.30;;
46561;SDS011;32289;42.688;23.330;2023-09-08T08:01:54;3.95;;;2.42;;
46561;SDS011;32289;42.688;23.330;2023-09-08T08:05:34;7.20;;;2.70;;
46561;SDS011;32289;42.688;23.330;2023-09-08T08:09:15;4.70;;;2.30;;
46561;SDS011;32289;42.688;23.330;2023-09-08T08:12:56;4.78;;;3.03;;
46561;SDS011;32289;42.688;23.330;2023-09-08T08:16:37;6.20;;;2.60;;
46561;SDS011;32289;42.688;23.330;2023-09-08T08:20:17;5.03;;;2.30;;
46561;SDS011;32289;42.688;23.330;2023-09-08T08:23:59;4.53;;;3.20;;
46561;SDS011;32289;42.688;23.330;2023-09-08T08:27:40;4.15;;;2.65;;
46561;SDS011;32289;42.688;23.330;2023-09-08T08:31:21;6.43;;;2.70;;
46561;SDS011;32289;42.688;23.330;2023-09-08T08:35:01;4.00;;;2.80;;
46561;SDS011;32289;42.688;23.330;2023-09-08T08:38:44;6.82;;;3.17;;
46561;SDS011;32289;42.688;23.330;2023-09-08T08:42:30;5.68;;;2.10;;
46561;SDS011;32289;42.688;23.330;2023-09-08T08:46:12;7.57;;;2.70;;
46561;SDS011;32289;42.688;23.330;2023-09-08T08:49:55;4.53;;;2.80;;
46561;SDS011;32289;42.688;23.330;2023-09-08T08:53:38;7.32;;;3.17;;
46561;SDS011;32289;42.688;23.330;2023-09-08T08:57:20;5.25;;;2.40;;
46561;SDS011;32289;42.688;23.330;2023-09-08T09:01:02;7.57;;;3.33;;
46561;SDS011;32289;42.688;23.330;2023-09-08T09:04:44;4.55;;;2.15;;
46561;SDS011;32289;42.688;23.330;2023-09-08T09:08:27;4.28;;;3.03;;
46561;SDS011;32289;42.688;23.330;2023-09-08T09:12:08;5.00;;;2.60;;
46561;SDS011;32289;42.688;23.330;2023-09-08T09:15:49;5.43;;;2.55;;
46561;SDS011;32289;42.688;23.330;2023-09-08T09:19:30;4.90;;;2.60;;
46561;SDS011;32289;42.688;23.330;2023-09-08T09:23:11;4.80;;;3.05;;
46561;SDS011;32289;42.688;23.330;2023-09-08T09:27:12;4.63;;;2.35;;
46561;SDS011;32289;42.688;23.330;2023-09-08T09:30:53;7.55;;;2.85;;
46561;SDS011;32289;42.688;23.330;2023-09-08T09:34:44;7.75;;;2.78;;
46561;SDS011;32289;42.688;23.330;2023-09-08T09:38:33;5.03;;;2.80;;
46561;SDS011;32289;42.688;23.330;2023-09-08T09:42:15;5.72;;;2.65;;
46561;SDS011;32289;42.688;23.330;2023-09-08T09:45:56;7.47;;;2.38;;
46561;SDS011;32289;42.688;23.330;2023-09-08T09:49:44;4.82;;;2.67;;
46561;SDS011;32289;42.688;23.330;2023-09-08T09:53:25;4.95;;;2.42;;
46561;SDS011;32289;42.688;23.330;2023-09-08T09:57:06;3.95;;;2.65;;
46561;SDS011;32289;42.688;23.330;2023-09-08T10:00:47;5.05;;;2.80;;
46561;SDS011;32289;42.688;23.330;2023-09-08T10:04:29;5.20;;;2.67;;
46561;SDS011;32289;42.688;23.330;2023-09-08T10:08:11;5.72;;;3.20;;
46561;SDS011;32289;42.688;23.330;2023-09-08T10:11:51;4.30;;;2.67;;
46561;SDS011;32289;42.688;23.330;2023-09-08T10:15:34;6.15;;;2.95;;
46561;SDS011;32289;42.688;23.330;2023-09-08T10:19:17;4.45;;;2.75;;
46561;SDS011;32289;42.688;23.330;2023-09-08T10:26:46;6.80;;;2.60;;
46561;SDS011;32289;42.688;23.330;2023-09-08T10:30:38;10.07;;;3.00;;
46561;SDS011;32289;42.688;23.330;2023-09-08T10:34:19;3.75;;;2.25;;
46561;SDS011;32289;42.688;23.330;2023-09-08T10:46:00;3.80;;;2.25;;
46561;SDS011;32289;42.688;23.330;2023-09-08T10:49:49;3.85;;;2.17;;
46561;SDS011;32289;42.688;23.330;2023-09-08T10:53:33;5.13;;;2.42;;
46561;SDS011;32289;42.688;23.330;2023-09-08T10:57:18;4.00;;;2.47;;
46561;SDS011;32289;42.688;23.330;2023-09-08T11:01:01;6.38;;;2.90;;
46561;SDS011;32289;42.688;23.330;2023-09-08T11:04:44;6.07;;;2.58;;
46561;SDS011;32289;42.688;23.330;2023-09-08T11:08:25;5.22;;;2.70;;
46561;SDS011;32289;42.688;23.330;2023-09-08T11:12:06;3.88;;;2.60;;
46561;SDS011;32289;42.688;23.330;2023-09-08T11:15:50;4.90;;;2.90;;
46561;SDS011;32289;42.688;23.330;2023-09-08T11:19:45;6.88;;;2.83;;
46561;SDS011;32289;42.688;23.330;2023-09-08T11:23:27;4.18;;;3.03;;
46561;SDS011;32289;42.688;23.330;2023-09-08T11:27:09;4.50;;;2.85;;
46561;SDS011;32289;42.688;23.330;2023-09-08T11:30:50;5.25;;;2.88;;
46561;SDS011;32289;42.688;23.330;2023-09-08T11:34:31;4.35;;;2.67;;
46561;SDS011;32289;42.688;23.330;2023-09-08T11:38:12;3.67;;;2.83;;
46561;SDS011;32289;42.688;23.330;2023-09-08T11:41:53;4.07;;;2.67;;
46561;SDS011;32289;42.688;23.330;2023-09-08T11:45:34;3.95;;;2.83;;
46561;SDS011;32289;42.688;23.330;2023-09-08T11:49:18;5.07;;;2.70;;
46561;SDS011;32289;42.688;23.330;2023-09-08T11:53:00;4.13;;;2.95;;
46561;SDS011;32289;42.688;23.330;2023-09-08T11:56:42;8.13;;;3.28;;
46561;SDS011;32289;42.688;23.330;2023-09-08T12:00:23;4.97;;;2.97;;
46561;SDS011;32289;42.688;23.330;2023-09-08T12:04:06;5.65;;;2.72;;
46561;SDS011;32289;42.688;23.330;2023-09-08T12:07:46;3.42;;;2.35;;
46561;SDS011;32289;42.688;23.330;2023-09-08T12:11:34;4.00;;;2.75;;
46561;SDS011;32289;42.688;23.330;2023-09-08T12:19:31;5.93;;;3.22;;
46561;SDS011;32289;42.688;23.330;2023-09-08T12:23:16;5.97;;;2.97;;
46561;SDS011;32289;42.688;23.330;2023-09-08T12:27:02;4.15;;;2.30;;
46561;SDS011;32289;42.688;23.330;2023-09-08T12:30:42;5.43;;;2.58;;
46561;SDS011;32289;42.688;23.330;2023-09-08T12:34:23;8.20;;;2.67;;
46561;SDS011;32289;42.688;23.330;2023-09-08T12:38:04;5.80;;;3.13;;
46561;SDS011;32289;42.688;23.330;2023-09-08T12:41:47;7.72;;;2.83;;
46561;SDS011;32289;42.688;23.330;2023-09-08T12:45:29;7.35;;;3.10;;
46561;SDS011;32289;42.688;23.330;2023-09-08T12:49:11;4.57;;;2.70;;
46561;SDS011;32289;42.688;23.330;2023-09-08T12:52:51;4.32;;;2.70;;
46561;SDS011;32289;42.688;23.330;2023-09-08T12:56:33;10.40;;;2.95;;
46561;SDS011;32289;42.688;23.330;2023-09-08T13:00:14;7.50;;;2.50;;
46561;SDS011;32289;42.688;23.330;2023-09-08T13:03:54;4.32;;;2.53;;
46561;SDS011;32289;42.688;23.330;2023-09-08T13:07:35;3.72;;;2.40;;
46561;SDS011;32289;42.688;23.330;2023-09-08T13:11:16;6.18;;;2.40;;
46561;SDS011;32289;42.688;23.330;2023-09-08T13:14:56;9.80;;;2.60;;
46561;SDS011;32289;42.688;23.330;2023-09-08T13:18:37;3.88;;;2.50;;
46561;SDS011;32289;42.688;23.330;2023-09-08T13:22:18;6.63;;;2.83;;
46561;SDS011;32289;42.688;23.330;2023-09-08T13:25:59;7.22;;;2.92;;
46561;SDS011;32289;42.688;23.330;2023-09-08T13:29:40;5.05;;;3.20;;
46561;SDS011;32289;42.688;23.330;2023-09-08T13:33:20;4.80;;;3.05;;
46561;SDS011;32289;42.688;23.330;2023-09-08T13:37:01;7.10;;;2.92;;
46561;SDS011;32289;42.688;23.330;2023-09-08T13:40:42;4.25;;;2.83;;
46561;SDS011;32289;42.688;23.330;2023-09-08T13:44:23;6.55;;;3.03;;
46561;SDS011;32289;42.688;23.330;2023-09-08T13:48:04;5.75;;;2.78;;
46561;SDS011;32289;42.688;23.330;2023-09-08T13:51:46;4.10;;;2.63;;
46561;SDS011;32289;42.688;23.330;2023-09-08T13:55:27;4.65;;;3.50;;
46561;SDS011;32289;42.688;23.330;2023-09-08T13:59:08;4.05;;;2.30;;
46561;SDS011;32289;42.688;23.330;2023-09-08T14:02:49;9.02;;;3.05;;
46561;SDS011;32289;42.688;23.330;2023-09-08T14:06:29;6.72;;;3.05;;
46561;SDS011;32289;42.688;23.330;2023-09-08T14:10:10;6.50;;;3.25;;
46561;SDS011;32289;42.688;23.330;2023-09-08T14:13:51;4.13;;;2.85;;
46561;SDS011;32289;42.688;23.330;2023-09-08T14:17:31;4.75;;;2.80;;
46561;SDS011;32289;42.688;23.330;2023-09-08T14:21:12;7.32;;;3.08;;
46561;SDS011;32289;42.688;23.330;2023-09-08T14:24:53;7.30;;;3.30;;
46561;SDS011;32289;42.688;23.330;2023-09-08T14:28:34;8.55;;;3.33;;
46561;SDS011;32289;42.688;23.330;2023-09-08T14:32:14;5.80;;;2.58;;
46561;SDS011;32289;42.688;23.330;2023-09-08T14:35:55;6.97;;;2.55;;
46561;SDS011;32289;42.688;23.330;2023-09-08T14:39:36;5.57;;;2.42;;
46561;SDS011;32289;42.688;23.330;2023-09-08T14:43:16;6.90;;;2.70;;
46561;SDS011;32289;42.688;23.330;2023-09-08T14:46:57;6.72;;;3.72;;
46561;SDS011;32289;42.688;23.330;2023-09-08T14:50:38;7.15;;;3.90;;
46561;SDS011;32289;42.688;23.330;2023-09-08T14:54:19;8.13;;;3.10;;
46561;SDS011;32289;42.688;23.330;2023-09-08T14:57:59;4.65;;;2.63;;
46561;SDS011;32289;42.688;23.330;2023-09-08T15:01:40;5.82;;;2.67;;
46561;SDS011;32289;42.688;23.330;2023-09-08T15:05:23;6.72;;;3.00;;
46561;SDS011;32289;42.688;23.330;2023-09-08T15:09:04;9.70;;;2.83;;
46561;SDS011;32289;42.688;23.330;2023-09-08T15:12:45;8.57;;;3.38;;
46561;SDS011;32289;42.688;23.330;2023-09-08T15:16:25;5.38;;;2.72;;
46561;SDS011;32289;42.688;23.330;2023-09-08T15:20:06;6.20;;;2.60;;
46561;SDS011;32289;42.688;23.330;2023-09-08T15:23:49;4.85;;;2.63;;
46561;SDS011;32289;42.688;23.330;2023-09-08T15:27:30;4.32;;;2.58;;
46561;SDS011;32289;42.688;23.330;2023-09-08T15:31:10;5.82;;;3.13;;
46561;SDS011;32289;42.688;23.330;2023-09-08T15:34:55;4.45;;;2.78;;
46561;SDS011;32289;42.688;23.330;2023-09-08T15:38:35;7.20;;;2.80;;
46561;SDS011;32289;42.688;23.330;2023-09-08T15:42:16;4.18;;;2.80;;
46561;SDS011;32289;42.688;23.330;2023-09-08T15:45:57;8.45;;;3.38;;
46561;SDS011;32289;42.688;23.330;2023-09-08T15:49:38;4.95;;;2.88;;
46561;SDS011;32289;42.688;23.330;2023-09-08T15:53:18;4.95;;;3.42;;
46561;SDS011;32289;42.688;23.330;2023-09-08T15:56:59;7.35;;;2.95;;
46561;SDS011;32289;42.688;23.330;2023-09-08T16:00:40;5.53;;;2.65;;
46561;SDS011;32289;42.688;23.330;2023-09-08T16:04:21;4.72;;;3.10;;
46561;SDS011;32289;42.688;23.330;2023-09-08T16:08:01;6.30;;;3.00;;
46561;SDS011;32289;42.688;23.330;2023-09-08T16:11:42;5.93;;;3.00;;
46561;SDS011;32289;42.688;23.330;2023-09-08T16:15:23;5.38;;;2.90;;
46561;SDS011;32289;42.688;23.330;2023-09-08T16:19:04;6.63;;;3.15;;
46561;SDS011;32289;42.688;23.330;2023-09-08T16:22:45;9.20;;;6.30;;
46561;SDS011;32289;42.688;23.330;2023-09-08T16:26:26;7.60;;;5.05;;
46561;SDS011;32289;42.688;23.330;2023-09-08T16:30:07;5.63;;;3.72;;
46561;SDS011;32289;42.688;23.330;2023-09-08T16:33:50;5.25;;;2.92;;
46561;SDS011;32289;42.688;23.330;2023-09-08T16:37:31;7.50;;;3.50;;
46561;SDS011;32289;42.688;23.330;2023-09-08T16:41:11;7.70;;;4.18;;
46561;SDS011;32289;42.688;23.330;2023-09-08T16:44:52;5.68;;;2.40;;
46561;SDS011;32289;42.688;23.330;2023-09-08T16:48:33;7.30;;;3.60;;
46561;SDS011;32289;42.688;23.330;2023-09-08T16:52:14;9.50;;;4.30;;
46561;SDS011;32289;42.688;23.330;2023-09-08T16:55:55;7.22;;;3.83;;
46561;SDS011;32289;42.688;23.330;2023-09-08T16:59:35;3.95;;;2.65;;
46561;SDS011;32289;42.688;23.330;2023-09-08T17:03:16;10.05;;;4.13;;
46561;SDS011;32289;42.688;23.330;2023-09-08T17:06:57;8.25;;;3.30;;
46561;SDS011;32289;42.688;23.330;2023-09-08T17:10:38;5.78;;;3.10;;
46561;SDS011;32289;42.688;23.330;2023-09-08T17:14:18;7.57;;;3.70;;
46561;SDS011;32289;42.688;23.330;2023-09-08T17:17:59;7.45;;;3.40;;
46561;SDS011;32289;42.688;23.330;2023-09-08T17:21:39;14.52;;;4.65;;
46561;SDS011;32289;42.688;23.330;2023-09-08T17:25:20;6.20;;;3.80;;
46561;SDS011;32289;42.688;23.330;2023-09-08T17:29:01;5.75;;;3.83;;
46561;SDS011;32289;42.688;23.330;2023-09-08T17:32:41;11.48;;;4.05;;
46561;SDS011;32289;42.688;23.330;2023-09-08T17:36:22;5.22;;;3.45;;
46561;SDS011;32289;42.688;23.330;2023-09-08T17:40:03;8.75;;;3.35;;
46561;SDS011;32289;42.688;23.330;2023-09-08T17:43:46;7.72;;;3.47;;
46561;SDS011;32289;42.688;23.330;2023-09-08T17:47:27;9.25;;;3.97;;
46561;SDS011;32289;42.688;23.330;2023-09-08T17:51:08;5.78;;;3.22;;
46561;SDS011;32289;42.688;23.330;2023-09-08T17:54:48;7.20;;;3.47;;
46561;SDS011;32289;42.688;23.330;2023-09-08T17:58:29;6.30;;;3.28;;
46561;SDS011;32289;42.688;23.330;2023-09-08T18:02:10;8.32;;;3.47;;
46561;SDS011;32289;42.688;23.330;2023-09-08T18:05:50;7.75;;;3.55;;
46561;SDS011;32289;42.688;23.330;2023-09-08T18:09:31;8.77;;;2.95;;
46561;SDS011;32289;42.688;23.330;2023-09-08T18:13:12;7.10;;;3.25;;
46561;SDS011;32289;42.688;23.330;2023-09-08T18:16:53;7.57;;;3.60;;
46561;SDS011;32289;42.688;23.330;2023-09-08T18:20:34;4.90;;;3.05;;
46561;SDS011;32289;42.688;23.330;2023-09-08T18:24:15;4.15;;;2.65;;
46561;SDS011;32289;42.688;23.330;2023-09-08T18:27:55;10.98;;;3.67;;
46561;SDS011;32289;42.688;23.330;2023-09-08T18:31:36;9.27;;;3.50;;
46561;SDS011;32289;42.688;23.330;2023-09-08T18:35:17;6.57;;;3.33;;
46561;SDS011;32289;42.688;23.330;2023-09-08T18:38:57;7.43;;;3.75;;
46561;SDS011;32289;42.688;23.330;2023-09-08T18:42:39;7.00;;;2.88;;
46561;SDS011;32289;42.688;23.330;2023-09-08T18:46:22;7.97;;;3.35;;
46561;SDS011;32289;42.688;23.330;2023-09-08T18:50:03;7.18;;;3.55;;
46561;SDS011;32289;42.688;23.330;2023-09-08T18:53:45;10.23;;;4.07;;
46561;SDS011;32289;42.688;23.330;2023-09-08T18:57:26;16.25;;;4.32;;
46561;SDS011;32289;42.688;23.330;2023-09-08T19:01:09;7.15;;;3.58;;
46561;SDS011;32289;42.688;23.330;2023-09-08T19:04:49;7.28;;;3.92;;
46561;SDS011;32289;42.688;23.330;2023-09-08T19:08:31;11.77;;;3.78;;
46561;SDS011;32289;42.688;23.330;2023-09-08T19:12:11;7.03;;;4.43;;
46561;SDS011;32289;42.688;23.330;2023-09-08T19:15:52;12.63;;;4.75;;
46561;SDS011;32289;42.688;23.330;2023-09-08T19:19:33;8.88;;;4.55;;
46561;SDS011;32289;42.688;23.330;2023-09-08T19:23:14;8.20;;;3.92;;
46561;SDS011;32289;42.688;23.330;2023-09-08T19:26:54;6.40;;;3.67;;
46561;SDS011;32289;42.688;23.330;2023-09-08T19:30:35;8.40;;;3.45;;
46561;SDS011;32289;42.688;23.330;2023-09-08T19:34:15;8.57;;;3.42;;
46561;SDS011;32289;42.688;23.330;2023-09-08T19:37:56;10.07;;;4.95;;
46561;SDS011;32289;42.688;23.330;2023-09-08T19:41:37;8.00;;;3.53;;
46561;SDS011;32289;42.688;23.330;2023-09-08T19:45:18;9.25;;;3.90;;
46561;SDS011;32289;42.688;23.330;2023-09-08T19:48:59;8.63;;;3.90;;
46561;SDS011;32289;42.688;23.330;2023-09-08T19:52:39;10.00;;;3.47;;
46561;SDS011;32289;42.688;23.330;2023-09-08T19:56:20;6.00;;;3.10;;
46561;SDS011;32289;42.688;23.330;2023-09-08T20:00:01;4.20;;;2.78;;
46561;SDS011;32289;42.688;23.330;2023-09-08T20:03:43;8.20;;;3.33;;
46561;SDS011;32289;42.688;23.330;2023-09-08T20:07:24;5.38;;;2.88;;
46561;SDS011;32289;42.688;23.330;2023-09-08T20:11:07;6.68;;;3.17;;
46561;SDS011;32289;42.688;23.330;2023-09-08T20:14:48;5.72;;;2.83;;
46561;SDS011;32289;42.688;23.330;2023-09-08T20:18:31;5.20;;;2.85;;
46561;SDS011;32289;42.688;23.330;2023-09-08T20:22:30;7.40;;;3.05;;
46561;SDS011;32289;42.688;23.330;2023-09-08T20:26:16;4.53;;;2.90;;
46561;SDS011;32289;42.688;23.330;2023-09-08T20:29:59;5.45;;;3.17;;
46561;SDS011;32289;42.688;23.330;2023-09-08T20:34:04;3.97;;;2.75;;
46561;SDS011;32289;42.688;23.330;2023-09-08T20:37:45;4.88;;;3.05;;
46561;SDS011;32289;42.688;23.330;2023-09-08T20:41:41;5.65;;;2.90;;
46561;SDS011;32289;42.688;23.330;2023-09-08T20:46:13;6.63;;;3.28;;
46561;SDS011;32289;42.688;23.330;2023-09-08T20:50:31;5.25;;;2.78;;
46561;SDS011;32289;42.688;23.330;2023-09-08T20:54:50;4.30;;;2.95;;
46561;SDS011;32289;42.688;23.330;2023-09-08T20:58:51;7.28;;;2.88;;
46561;SDS011;32289;42.688;23.330;2023-09-08T21:02:57;7.28;;;3.65;;
46561;SDS011;32289;42.688;23.330;2023-09-08T21:07:18;6.50;;;3.13;;
46561;SDS011;32289;42.688;23.330;2023-09-08T21:11:57;6.10;;;3.35;;
46561;SDS011;32289;42.688;23.330;2023-09-08T21:16:35;9.80;;;3.42;;
46561;SDS011;32289;42.688;23.330;2023-09-08T21:21:04;5.97;;;3.00;;
46561;SDS011;32289;42.688;23.330;2023-09-08T21:25:08;6.30;;;3.43;;
46561;SDS011;32289;42.688;23.330;2023-09-08T21:29:02;6.45;;;3.10;;
46561;SDS011;32289;42.688;23.330;2023-09-08T21:32:50;4.93;;;2.90;;
46561;SDS011;32289;42.688;23.330;2023-09-08T21:37:12;4.13;;;2.60;;
46561;SDS011;32289;42.688;23.330;2023-09-08T21:41:50;9.95;;;3.20;;
46561;SDS011;32289;42.688;23.330;2023-09-08T21:46:06;7.30;;;2.92;;
46561;SDS011;32289;42.688;23.330;2023-09-08T21:50:48;5.18;;;3.05;;
46561;SDS011;32289;42.688;23.330;2023-09-08T21:55:26;5.32;;;2.75;;
46561;SDS011;32289;42.688;23.330;2023-09-08T22:03:58;5.10;;;3.15;;
46561;SDS011;32289;42.688;23.330;2023-09-08T22:08:25;7.65;;;3.00;;
46561;SDS011;32289;42.688;23.330;2023-09-08T22:12:08;5.28;;;2.67;;
46561;SDS011;32289;42.688;23.330;2023-09-08T22:20:51;9.88;;;3.55;;
46561;SDS011;32289;42.688;23.330;2023-09-08T22:24:42;9.18;;;2.92;;
46561;SDS011;32289;42.688;23.330;2023-09-08T22:28:26;8.68;;;3.05;;
46561;SDS011;32289;42.688;23.330;2023-09-08T22:32:08;7.20;;;3.60;;
46561;SDS011;32289;42.688;23.330;2023-09-08T22:36:11;5.63;;;2.90;;
46561;SDS011;32289;42.688;23.330;2023-09-08T22:39:54;3.90;;;2.80;;
46561;SDS011;32289;42.688;23.330;2023-09-08T22:43:37;6.03;;;2.88;;
46561;SDS011;32289;42.688;23.330;2023-09-08T22:47:19;7.72;;;3.10;;
46561;SDS011;32289;42.688;23.330;2023-09-08T22:51:02;4.95;;;3.10;;